sensor_id;sensor_type;location;lat;lon;timestamp;pressure;altitude;pressure_sealevel;temperature;humidity
48015;BME280;33780;51.034;7.120;2023-03-22T00:00:34;100340.97;;;11.80;68.78
48015;BME280;33780;51.034;7.120;2023-03-22T00:03:01;100346.03;;;11.83;68.59
48015;BME280;33780;51.034;7.120;2023-03-22T00:05:26;100345.75;;;11.86;69.26
48015;BME280;33780;51.034;7.120;2023-03-22T00:07:51;100337.56;;;11.88;68.55
48015;BME280;33780;51.034;7.120;2023-03-22T00:10:22;100338.94;;;11.92;69.03
48015;BME280;33780;51.034;7.120;2023-03-22T00:12:47;100331.59;;;11.94;68.59
48015;BME280;33780;51.034;7.120;2023-03-22T00:15:12;100326.75;;;11.97;68.44
48015;BME280;33780;51.034;7.120;2023-03-22T00:17:39;100327.44;;;11.99;68.26
48015;BME280;33780;51.034;7.120;2023-03-22T00:20:06;100333.50;;;12.01;68.46
48015;BME280;33780;51.034;7.120;2023-03-22T00:22:32;100327.13;;;12.02;68.52
48015;BME280;33780;51.034;7.120;2023-03-22T00:24:57;100326.44;;;12.00;68.63
48015;BME280;33780;51.034;7.120;2023-03-22T00:27:23;100329.13;;;12.00;68.64
48015;BME280;33780;51.034;7.120;2023-03-22T00:29:51;100321.25;;;11.99;68.92
48015;BME280;33780;51.034;7.120;2023-03-22T00:32:17;100323.06;;;11.98;68.98
48015;BME280;33780;51.034;7.120;2023-03-22T00:34:42;100320.53;;;11.97;69.02
48015;BME280;33780;51.034;7.120;2023-03-22T00:37:07;100316.03;;;11.97;69.01
48015;BME280;33780;51.034;7.120;2023-03-22T00:39:33;100308.13;;;11.96;68.90
48015;BME280;33780;51.034;7.120;2023-03-22T00:41:58;100308.28;;;11.94;69.38
48015;BME280;33780;51.034;7.120;2023-03-22T00:44:23;100300.25;;;11.94;69.41
48015;BME280;33780;51.034;7.120;2023-03-22T00:46:49;100299.72;;;11.91;69.33
48015;BME280;33780;51.034;7.120;2023-03-22T00:49:14;100293.66;;;11.89;69.47
48015;BME280;33780;51.034;7.120;2023-03-22T00:51:40;100295.66;;;11.87;69.31
48015;BME280;33780;51.034;7.120;2023-03-22T00:54:05;100285.91;;;11.86;69.64
48015;BME280;33780;51.034;7.120;2023-03-22T00:56:30;100285.91;;;11.86;69.29
48015;BME280;33780;51.034;7.120;2023-03-22T00:58:58;100278.84;;;11.85;69.28
48015;BME280;33780;51.034;7.120;2023-03-22T01:01:23;100272.63;;;11.84;69.50
48015;BME280;33780;51.034;7.120;2023-03-22T01:03:48;100275.47;;;11.83;69.15
48015;BME280;33780;51.034;7.120;2023-03-22T01:06:14;100271.78;;;11.84;69.58
48015;BME280;33780;51.034;7.120;2023-03-22T01:08:40;100265.75;;;11.82;69.52
48015;BME280;33780;51.034;7.120;2023-03-22T01:11:06;100265.88;;;11.80;69.80
48015;BME280;33780;51.034;7.120;2023-03-22T01:13:32;100250.81;;;11.79;69.13
48015;BME280;33780;51.034;7.120;2023-03-22T01:15:57;100256.16;;;11.79;69.35
48015;BME280;33780;51.034;7.120;2023-03-22T01:18:23;100248.13;;;11.79;69.50
48015;BME280;33780;51.034;7.120;2023-03-22T01:20:48;100263.22;;;11.80;69.51
48015;BME280;33780;51.034;7.120;2023-03-22T01:23:15;100262.50;;;11.78;69.15
48015;BME280;33780;51.034;7.120;2023-03-22T01:25:41;100250.94;;;11.77;69.38
48015;BME280;33780;51.034;7.120;2023-03-22T01:28:06;100263.63;;;11.75;69.76
48015;BME280;33780;51.034;7.120;2023-03-22T01:30:31;100261.13;;;11.74;69.61
48015;BME280;33780;51.034;7.120;2023-03-22T01:32:57;100263.94;;;11.72;69.84
48015;BME280;33780;51.034;7.120;2023-03-22T01:35:22;100258.03;;;11.69;69.88
48015;BME280;33780;51.034;7.120;2023-03-22T01:37:48;100258.19;;;11.67;69.64
48015;BME280;33780;51.034;7.120;2023-03-22T01:40:14;100249.44;;;11.65;70.06
48015;BME280;33780;51.034;7.120;2023-03-22T01:42:40;100251.44;;;11.63;70.14
48015;BME280;33780;51.034;7.120;2023-03-22T01:47:39;100249.34;;;11.57;70.34
48015;BME280;33780;51.034;7.120;2023-03-22T01:50:06;100242.47;;;11.55;70.37
48015;BME280;33780;51.034;7.120;2023-03-22T01:52:32;100238.94;;;11.54;70.01
48015;BME280;33780;51.034;7.120;2023-03-22T01:54:57;100239.25;;;11.51;70.29
48015;BME280;33780;51.034;7.120;2023-03-22T01:57:23;100232.31;;;11.48;70.60
48015;BME280;33780;51.034;7.120;2023-03-22T01:59:48;100231.63;;;11.46;70.31
48015;BME280;33780;51.034;7.120;2023-03-22T02:02:17;100229.25;;;11.43;70.78
48015;BME280;33780;51.034;7.120;2023-03-22T02:04:43;100231.25;;;11.41;70.68
48015;BME280;33780;51.034;7.120;2023-03-22T02:07:13;100225.19;;;11.39;70.44
48015;BME280;33780;51.034;7.120;2023-03-22T02:09:40;100222.81;;;11.36;70.30
48015;BME280;33780;51.034;7.120;2023-03-22T02:15:24;100220.72;;;11.30;70.81
48015;BME280;33780;51.034;7.120;2023-03-22T02:18:20;100212.13;;;11.27;70.35
48015;BME280;33780;51.034;7.120;2023-03-22T02:30:10;100202.63;;;11.14;70.66
48015;BME280;33780;51.034;7.120;2023-03-22T02:43:32;100195.63;;;11.04;71.04
48015;BME280;33780;51.034;7.120;2023-03-22T02:48:37;100191.41;;;11.01;71.25
48015;BME280;33780;51.034;7.120;2023-03-22T02:51:08;100189.56;;;11.02;71.15
48015;BME280;33780;51.034;7.120;2023-03-22T02:53:48;100186.91;;;11.02;71.05
48015;BME280;33780;51.034;7.120;2023-03-22T02:56:43;100175.34;;;11.01;70.92
48015;BME280;33780;51.034;7.120;2023-03-22T02:59:11;100177.03;;;11.02;70.51
48015;BME280;33780;51.034;7.120;2023-03-22T03:01:50;100174.34;;;11.02;70.96
48015;BME280;33780;51.034;7.120;2023-03-22T03:04:19;100167.31;;;11.01;70.81
48015;BME280;33780;51.034;7.120;2023-03-22T03:06:47;100162.81;;;11.02;70.89
48015;BME280;33780;51.034;7.120;2023-03-22T03:09:15;100161.13;;;11.01;70.68
48015;BME280;33780;51.034;7.120;2023-03-22T03:11:44;100157.59;;;11.00;70.68
48015;BME280;33780;51.034;7.120;2023-03-22T03:14:31;100161.41;;;10.98;70.95
48015;BME280;33780;51.034;7.120;2023-03-22T03:19:36;100155.78;;;10.91;70.62
48015;BME280;33780;51.034;7.120;2023-03-22T03:22:12;100155.25;;;10.87;70.99
48015;BME280;33780;51.034;7.120;2023-03-22T03:24:48;100155.69;;;10.83;70.77
48015;BME280;33780;51.034;7.120;2023-03-22T03:27:29;100150.78;;;10.78;70.80
48015;BME280;33780;51.034;7.120;2023-03-22T03:30:04;100156.25;;;10.77;70.74
48015;BME280;33780;51.034;7.120;2023-03-22T03:32:43;100145.56;;;10.77;70.77
48015;BME280;33780;51.034;7.120;2023-03-22T03:35:19;100149.22;;;10.76;70.72
48015;BME280;33780;51.034;7.120;2023-03-22T03:38:06;100153.34;;;10.70;70.32
48015;BME280;33780;51.034;7.120;2023-03-22T03:40:35;100154.47;;;10.68;70.49
48015;BME280;33780;51.034;7.120;2023-03-22T03:43:03;100143.25;;;10.64;70.47
48015;BME280;33780;51.034;7.120;2023-03-22T03:45:30;100143.53;;;10.61;70.56
48015;BME280;33780;51.034;7.120;2023-03-22T03:48:00;100140.28;;;10.57;70.39
48015;BME280;33780;51.034;7.120;2023-03-22T03:50:26;100141.41;;;10.55;70.56
48015;BME280;33780;51.034;7.120;2023-03-22T03:52:53;100140.88;;;10.51;70.36
48015;BME280;33780;51.034;7.120;2023-03-22T03:55:20;100138.66;;;10.47;70.38
48015;BME280;33780;51.034;7.120;2023-03-22T03:57:46;100142.59;;;10.43;70.56
48015;BME280;33780;51.034;7.120;2023-03-22T04:00:12;100151.03;;;10.38;70.36
48015;BME280;33780;51.034;7.120;2023-03-22T04:02:42;100146.13;;;10.34;70.54
48015;BME280;33780;51.034;7.120;2023-03-22T04:05:08;100156.41;;;10.28;70.16
48015;BME280;33780;51.034;7.120;2023-03-22T04:07:34;100158.53;;;10.25;70.31
48015;BME280;33780;51.034;7.120;2023-03-22T04:09:59;100157.72;;;10.24;70.44
48015;BME280;33780;51.034;7.120;2023-03-22T04:12:25;100158.69;;;10.23;70.82
48015;BME280;33780;51.034;7.120;2023-03-22T04:14:50;100160.63;;;10.21;70.53
48015;BME280;33780;51.034;7.120;2023-03-22T04:17:15;100160.06;;;10.18;70.25
48015;BME280;33780;51.034;7.120;2023-03-22T04:19:41;100154.84;;;10.16;70.49
48015;BME280;33780;51.034;7.120;2023-03-22T04:22:09;100158.66;;;10.14;70.43
48015;BME280;33780;51.034;7.120;2023-03-22T04:24:41;100166.13;;;10.10;70.52
48015;BME280;33780;51.034;7.120;2023-03-22T04:27:07;100164.59;;;10.08;70.32
48015;BME280;33780;51.034;7.120;2023-03-22T04:29:33;100159.50;;;10.05;70.30
48015;BME280;33780;51.034;7.120;2023-03-22T04:32:03;100158.66;;;10.04;70.39
48015;BME280;33780;51.034;7.120;2023-03-22T04:34:28;100155.13;;;10.04;70.68
48015;BME280;33780;51.034;7.120;2023-03-22T04:36:53;100156.72;;;10.06;70.55
48015;BME280;33780;51.034;7.120;2023-03-22T04:39:19;100159.09;;;10.09;70.74
48015;BME280;33780;51.034;7.120;2023-03-22T04:41:44;100157.97;;;10.12;70.81
48015;BME280;33780;51.034;7.120;2023-03-22T04:44:10;100153.16;;;10.15;71.01
48015;BME280;33780;51.034;7.120;2023-03-22T04:46:36;100148.53;;;10.17;71.21
48015;BME280;33780;51.034;7.120;2023-03-22T04:49:02;100145.44;;;10.22;71.76
48015;BME280;33780;51.034;7.120;2023-03-22T04:51:28;100144.19;;;10.26;71.69
48015;BME280;33780;51.034;7.120;2023-03-22T04:53:54;100152.75;;;10.29;71.48
48015;BME280;33780;51.034;7.120;2023-03-22T04:56:20;100141.06;;;10.31;71.80
48015;BME280;33780;51.034;7.120;2023-03-22T04:58:45;100134.03;;;10.29;71.28
48015;BME280;33780;51.034;7.120;2023-03-22T05:01:13;100128.13;;;10.26;71.30
48015;BME280;33780;51.034;7.120;2023-03-22T05:03:39;100140.09;;;10.22;71.04
48015;BME280;33780;51.034;7.120;2023-03-22T05:06:07;100128.81;;;10.18;71.40
48015;BME280;33780;51.034;7.120;2023-03-22T05:08:33;100131.78;;;10.15;71.16
48015;BME280;33780;51.034;7.120;2023-03-22T05:11:04;100131.22;;;10.12;70.90
48015;BME280;33780;51.034;7.120;2023-03-22T05:13:30;100134.03;;;10.10;71.14
48015;BME280;33780;51.034;7.120;2023-03-22T05:15:56;100133.19;;;10.10;71.01
48015;BME280;33780;51.034;7.120;2023-03-22T05:18:22;100140.25;;;10.11;71.32
48015;BME280;33780;51.034;7.120;2023-03-22T05:20:53;100136.44;;;10.13;71.28
48015;BME280;33780;51.034;7.120;2023-03-22T05:23:20;100136.97;;;10.17;71.59
48015;BME280;33780;51.034;7.120;2023-03-22T05:25:47;100132.31;;;10.19;71.76
48015;BME280;33780;51.034;7.120;2023-03-22T05:28:13;100117.97;;;10.20;71.48
48015;BME280;33780;51.034;7.120;2023-03-22T05:30:40;100127.56;;;10.22;71.82
48015;BME280;33780;51.034;7.120;2023-03-22T05:33:06;100116.75;;;10.24;71.76
48015;BME280;33780;51.034;7.120;2023-03-22T05:35:33;100118.44;;;10.25;71.85
48015;BME280;33780;51.034;7.120;2023-03-22T05:38:02;100120.97;;;10.26;71.81
48015;BME280;33780;51.034;7.120;2023-03-22T05:40:27;100115.63;;;10.26;71.96
48015;BME280;33780;51.034;7.120;2023-03-22T05:42:53;100124.19;;;10.30;71.84
48015;BME280;33780;51.034;7.120;2023-03-22T05:45:18;100119.53;;;10.32;72.09
48015;BME280;33780;51.034;7.120;2023-03-22T05:47:44;100123.88;;;10.33;71.89
48015;BME280;33780;51.034;7.120;2023-03-22T05:50:12;100131.75;;;10.35;71.83
48015;BME280;33780;51.034;7.120;2023-03-22T05:52:38;100139.66;;;10.36;72.25
48015;BME280;33780;51.034;7.120;2023-03-22T05:55:04;100135.00;;;10.38;72.22
48015;BME280;33780;51.034;7.120;2023-03-22T05:57:30;100129.38;;;10.41;72.04
48015;BME280;33780;51.034;7.120;2023-03-22T05:59:56;100132.59;;;10.45;72.47
48015;BME280;33780;51.034;7.120;2023-03-22T06:02:22;100129.63;;;10.48;72.60
48015;BME280;33780;51.034;7.120;2023-03-22T06:04:50;100132.00;;;10.51;73.03
48015;BME280;33780;51.034;7.120;2023-03-22T06:07:18;100134.22;;;10.55;72.82
48015;BME280;33780;51.034;7.120;2023-03-22T06:09:44;100126.75;;;10.59;73.06
48015;BME280;33780;51.034;7.120;2023-03-22T06:12:11;100130.84;;;10.63;73.12
48015;BME280;33780;51.034;7.120;2023-03-22T06:14:36;100122.22;;;10.69;73.56
48015;BME280;33780;51.034;7.120;2023-03-22T06:17:02;100118.25;;;10.73;73.17
48015;BME280;33780;51.034;7.120;2023-03-22T06:19:27;100129.38;;;10.78;73.27
48015;BME280;33780;51.034;7.120;2023-03-22T06:21:53;100123.72;;;10.81;73.56
48015;BME280;33780;51.034;7.120;2023-03-22T06:24:18;100123.28;;;10.86;73.71
48015;BME280;33780;51.034;7.120;2023-03-22T06:26:44;100120.28;;;10.89;73.48
48015;BME280;33780;51.034;7.120;2023-03-22T06:29:09;100125.34;;;10.92;73.28
48015;BME280;33780;51.034;7.120;2023-03-22T06:31:35;100131.13;;;10.97;73.55
48015;BME280;33780;51.034;7.120;2023-03-22T06:34:01;100128.16;;;11.00;73.43
48015;BME280;33780;51.034;7.120;2023-03-22T06:36:26;100128.69;;;11.04;73.71
48015;BME280;33780;51.034;7.120;2023-03-22T06:38:51;100123.72;;;11.09;73.80
48015;BME280;33780;51.034;7.120;2023-03-22T06:41:18;100121.03;;;11.09;73.57
48015;BME280;33780;51.034;7.120;2023-03-22T06:43:43;100129.59;;;11.12;73.68
48015;BME280;33780;51.034;7.120;2023-03-22T06:46:08;100135.53;;;11.16;73.36
48015;BME280;33780;51.034;7.120;2023-03-22T06:48:34;100129.03;;;11.18;73.20
48015;BME280;33780;51.034;7.120;2023-03-22T06:51:00;100135.91;;;11.21;73.47
48015;BME280;33780;51.034;7.120;2023-03-22T06:53:25;100136.44;;;11.25;73.44
48015;BME280;33780;51.034;7.120;2023-03-22T06:55:50;100127.97;;;11.29;73.46
48015;BME280;33780;51.034;7.120;2023-03-22T06:58:16;100136.41;;;11.34;73.27
48015;BME280;33780;51.034;7.120;2023-03-22T07:00:42;100132.28;;;11.40;73.21
48015;BME280;33780;51.034;7.120;2023-03-22T07:03:10;100138.16;;;11.43;72.98
48015;BME280;33780;51.034;7.120;2023-03-22T07:05:35;100135.03;;;11.48;73.12
48015;BME280;33780;51.034;7.120;2023-03-22T07:08:01;100124.72;;;11.53;73.02
48015;BME280;33780;51.034;7.120;2023-03-22T07:10:26;100119.88;;;11.57;73.32
48015;BME280;33780;51.034;7.120;2023-03-22T07:12:51;100116.72;;;11.61;73.13
48015;BME280;33780;51.034;7.120;2023-03-22T07:15:17;100125.47;;;11.63;72.82
48015;BME280;33780;51.034;7.120;2023-03-22T07:17:44;100115.44;;;11.65;72.84
48015;BME280;33780;51.034;7.120;2023-03-22T07:20:09;100118.81;;;11.67;72.46
48015;BME280;33780;51.034;7.120;2023-03-22T07:22:35;100116.00;;;11.69;72.68
48015;BME280;33780;51.034;7.120;2023-03-22T07:25:00;100110.63;;;11.69;72.87
48015;BME280;33780;51.034;7.120;2023-03-22T07:27:25;100110.47;;;11.70;72.65
48015;BME280;33780;51.034;7.120;2023-03-22T07:29:51;100114.53;;;11.74;72.40
48015;BME280;33780;51.034;7.120;2023-03-22T07:32:16;100110.69;;;11.77;72.39
48015;BME280;33780;51.034;7.120;2023-03-22T07:34:41;100107.72;;;11.80;72.17
48015;BME280;33780;51.034;7.120;2023-03-22T07:37:07;100105.56;;;11.84;72.11
48015;BME280;33780;51.034;7.120;2023-03-22T07:39:33;100095.25;;;11.89;72.07
48015;BME280;33780;51.034;7.120;2023-03-22T07:41:58;100097.13;;;11.96;72.21
48015;BME280;33780;51.034;7.120;2023-03-22T07:44:24;100091.44;;;11.99;71.73
48015;BME280;33780;51.034;7.120;2023-03-22T07:46:49;100090.84;;;12.05;71.98
48015;BME280;33780;51.034;7.120;2023-03-22T07:49:16;100096.41;;;12.12;71.87
48015;BME280;33780;51.034;7.120;2023-03-22T07:51:42;100095.63;;;12.20;71.57
48015;BME280;33780;51.034;7.120;2023-03-22T07:54:07;100095.16;;;12.24;71.58
48015;BME280;33780;51.034;7.120;2023-03-22T07:56:32;100087.47;;;12.29;71.40
48015;BME280;33780;51.034;7.120;2023-03-22T07:58:58;100092.34;;;12.34;71.24
48015;BME280;33780;51.034;7.120;2023-03-22T08:01:23;100092.88;;;12.37;71.36
48015;BME280;33780;51.034;7.120;2023-03-22T08:03:49;100087.91;;;12.43;71.00
48015;BME280;33780;51.034;7.120;2023-03-22T08:06:14;100089.59;;;12.44;70.76
48015;BME280;33780;51.034;7.120;2023-03-22T08:08:43;100085.91;;;12.45;70.52
48015;BME280;33780;51.034;7.120;2023-03-22T08:11:08;100085.72;;;12.46;70.02
48015;BME280;33780;51.034;7.120;2023-03-22T08:13:33;100079.38;;;12.47;70.08
48015;BME280;33780;51.034;7.120;2023-03-22T08:15:58;100081.88;;;12.49;69.76
48015;BME280;33780;51.034;7.120;2023-03-22T08:18:24;100080.72;;;12.51;69.72
48015;BME280;33780;51.034;7.120;2023-03-22T08:20:54;100081.22;;;12.55;69.31
48015;BME280;33780;51.034;7.120;2023-03-22T08:23:21;100078.09;;;12.59;69.24
48015;BME280;33780;51.034;7.120;2023-03-22T08:25:47;100073.41;;;12.61;69.06
48015;BME280;33780;51.034;7.120;2023-03-22T08:28:12;100078.28;;;12.66;68.55
48015;BME280;33780;51.034;7.120;2023-03-22T08:30:40;100079.78;;;12.68;68.56
48015;BME280;33780;51.034;7.120;2023-03-22T08:33:05;100072.25;;;12.72;68.58
48015;BME280;33780;51.034;7.120;2023-03-22T08:35:31;100076.31;;;12.76;68.84
48015;BME280;33780;51.034;7.120;2023-03-22T08:37:56;100068.63;;;12.81;68.58
48015;BME280;33780;51.034;7.120;2023-03-22T08:40:22;100069.13;;;12.85;68.19
48015;BME280;33780;51.034;7.120;2023-03-22T08:42:48;100057.88;;;12.89;68.20
48015;BME280;33780;51.034;7.120;2023-03-22T08:45:14;100064.63;;;12.93;68.02
48015;BME280;33780;51.034;7.120;2023-03-22T08:47:40;100070.53;;;12.97;67.81
48015;BME280;33780;51.034;7.120;2023-03-22T08:50:06;100083.47;;;13.01;67.77
48015;BME280;33780;51.034;7.120;2023-03-22T08:52:32;100073.91;;;13.07;67.40
48015;BME280;33780;51.034;7.120;2023-03-22T08:54:57;100082.84;;;13.16;66.98
48015;BME280;33780;51.034;7.120;2023-03-22T08:57:22;100083.88;;;13.23;66.61
48015;BME280;33780;51.034;7.120;2023-03-22T08:59:48;100080.38;;;13.30;66.75
48015;BME280;33780;51.034;7.120;2023-03-22T09:02:16;100082.91;;;13.40;65.58
48015;BME280;33780;51.034;7.120;2023-03-22T09:04:41;100083.94;;;13.47;64.59
48015;BME280;33780;51.034;7.120;2023-03-22T09:07:07;100072.34;;;13.55;63.82
48015;BME280;33780;51.034;7.120;2023-03-22T09:09:32;100078.91;;;13.60;62.62
48015;BME280;33780;51.034;7.120;2023-03-22T09:11:57;100079.41;;;13.64;62.69
48015;BME280;33780;51.034;7.120;2023-03-22T09:14:23;100072.53;;;13.70;61.16
48015;BME280;33780;51.034;7.120;2023-03-22T09:16:48;100069.66;;;13.71;62.00
48015;BME280;33780;51.034;7.120;2023-03-22T09:19:13;100072.19;;;13.73;61.75
48015;BME280;33780;51.034;7.120;2023-03-22T09:21:38;100064.97;;;13.73;61.17
48015;BME280;33780;51.034;7.120;2023-03-22T09:24:04;100081.09;;;13.73;60.70
48015;BME280;33780;51.034;7.120;2023-03-22T09:26:32;100082.09;;;13.72;60.66
48015;BME280;33780;51.034;7.120;2023-03-22T09:28:58;100078.22;;;13.75;59.15
48015;BME280;33780;51.034;7.120;2023-03-22T09:31:23;100073.69;;;13.75;59.09
48015;BME280;33780;51.034;7.120;2023-03-22T09:33:48;100077.22;;;13.76;59.29
48015;BME280;33780;51.034;7.120;2023-03-22T09:36:14;100072.50;;;13.78;59.65
48015;BME280;33780;51.034;7.120;2023-03-22T09:38:39;100071.50;;;13.79;59.44
48015;BME280;33780;51.034;7.120;2023-03-22T09:41:19;100080.25;;;13.81;58.49
48015;BME280;33780;51.034;7.120;2023-03-22T09:43:59;100072.16;;;13.81;58.23
48015;BME280;33780;51.034;7.120;2023-03-22T09:46:33;100078.41;;;13.81;57.48
48015;BME280;33780;51.034;7.120;2023-03-22T09:49:00;100072.16;;;13.81;56.80
48015;BME280;33780;51.034;7.120;2023-03-22T09:51:39;100061.94;;;13.84;57.90
48015;BME280;33780;51.034;7.120;2023-03-22T09:54:14;100066.81;;;13.89;58.23
48015;BME280;33780;51.034;7.120;2023-03-22T09:56:45;100059.41;;;13.91;57.93
48015;BME280;33780;51.034;7.120;2023-03-22T09:59:17;100038.56;;;13.93;57.32
48015;BME280;33780;51.034;7.120;2023-03-22T10:01:57;100055.00;;;13.98;56.80
48015;BME280;33780;51.034;7.120;2023-03-22T10:07:30;100059.06;;;14.02;56.86
48015;BME280;33780;51.034;7.120;2023-03-22T10:12:46;100061.25;;;14.07;56.05
48015;BME280;33780;51.034;7.120;2023-03-22T10:15:23;100047.44;;;14.10;56.58
48015;BME280;33780;51.034;7.120;2023-03-22T10:17:52;100048.78;;;14.14;56.80
48015;BME280;33780;51.034;7.120;2023-03-22T10:20:30;100048.28;;;14.18;56.59
48015;BME280;33780;51.034;7.120;2023-03-22T10:23:01;100051.47;;;14.22;56.37
48015;BME280;33780;51.034;7.120;2023-03-22T10:25:36;100048.91;;;14.29;55.61
48015;BME280;33780;51.034;7.120;2023-03-22T10:28:13;100050.59;;;14.38;55.21
48015;BME280;33780;51.034;7.120;2023-03-22T10:30:40;100045.69;;;14.41;54.98
48015;BME280;33780;51.034;7.120;2023-03-22T10:33:13;100046.38;;;14.43;54.50
48015;BME280;33780;51.034;7.120;2023-03-22T10:35:42;100055.13;;;14.45;54.49
48015;BME280;33780;51.034;7.120;2023-03-22T10:38:18;100059.16;;;14.49;55.11
48015;BME280;33780;51.034;7.120;2023-03-22T10:40:46;100050.72;;;14.52;53.74
48015;BME280;33780;51.034;7.120;2023-03-22T10:43:21;100049.19;;;14.58;53.95
48015;BME280;33780;51.034;7.120;2023-03-22T10:45:51;100051.53;;;14.61;54.22
48015;BME280;33780;51.034;7.120;2023-03-22T10:48:25;100044.97;;;14.64;53.78
48015;BME280;33780;51.034;7.120;2023-03-22T10:50:52;100048.97;;;14.68;53.70
48015;BME280;33780;51.034;7.120;2023-03-22T10:53:37;100041.25;;;14.73;52.82
48015;BME280;33780;51.034;7.120;2023-03-22T10:56:05;100042.75;;;14.75;53.56
48015;BME280;33780;51.034;7.120;2023-03-22T10:58:37;100046.94;;;14.78;51.93
48015;BME280;33780;51.034;7.120;2023-03-22T11:01:08;100050.81;;;14.75;52.00
48015;BME280;33780;51.034;7.120;2023-03-22T11:06:10;100042.56;;;14.77;52.89
48015;BME280;33780;51.034;7.120;2023-03-22T11:13:41;100060.41;;;14.78;53.08
48015;BME280;33780;51.034;7.120;2023-03-22T11:16:07;100052.97;;;14.80;53.00
48015;BME280;33780;51.034;7.120;2023-03-22T11:18:33;100054.66;;;14.81;52.63
48015;BME280;33780;51.034;7.120;2023-03-22T11:21:08;100047.06;;;14.85;52.79
48015;BME280;33780;51.034;7.120;2023-03-22T11:23:37;100048.91;;;14.84;52.56
48015;BME280;33780;51.034;7.120;2023-03-22T11:26:09;100046.22;;;14.84;53.20
48015;BME280;33780;51.034;7.120;2023-03-22T11:28:46;100052.28;;;14.86;53.18
48015;BME280;33780;51.034;7.120;2023-03-22T11:31:15;100047.72;;;14.87;53.42
48015;BME280;33780;51.034;7.120;2023-03-22T11:33:54;100050.22;;;14.88;53.38
48015;BME280;33780;51.034;7.120;2023-03-22T11:36:20;100052.28;;;14.86;52.78
48015;BME280;33780;51.034;7.120;2023-03-22T11:38:46;100048.56;;;14.87;52.64
48015;BME280;33780;51.034;7.120;2023-03-22T11:41:28;100046.53;;;14.89;52.22
48015;BME280;33780;51.034;7.120;2023-03-22T11:44:01;100045.53;;;14.90;52.35
48015;BME280;33780;51.034;7.120;2023-03-22T11:46:28;100059.31;;;14.95;51.59
48015;BME280;33780;51.034;7.120;2023-03-22T11:49:00;100041.47;;;14.94;51.21
48015;BME280;33780;51.034;7.120;2023-03-22T11:51:31;100051.41;;;14.94;50.76
48015;BME280;33780;51.034;7.120;2023-03-22T11:54:24;100046.19;;;14.92;51.16
48015;BME280;33780;51.034;7.120;2023-03-22T11:56:54;100040.16;;;14.90;51.86
48015;BME280;33780;51.034;7.120;2023-03-22T11:59:24;100035.94;;;14.88;51.80
48015;BME280;33780;51.034;7.120;2023-03-22T12:04:33;100040.53;;;14.79;50.67
48015;BME280;33780;51.034;7.120;2023-03-22T12:07:09;100029.28;;;14.75;50.67
48015;BME280;33780;51.034;7.120;2023-03-22T12:09:48;100029.63;;;14.72;51.48
48015;BME280;33780;51.034;7.120;2023-03-22T12:12:26;100035.16;;;14.71;51.41
48015;BME280;33780;51.034;7.120;2023-03-22T12:14:59;100029.94;;;14.69;51.25
48015;BME280;33780;51.034;7.120;2023-03-22T12:17:37;100019.53;;;14.66;51.00
48015;BME280;33780;51.034;7.120;2023-03-22T12:20:20;100023.25;;;14.65;51.17
48015;BME280;33780;51.034;7.120;2023-03-22T12:22:53;100024.44;;;14.63;51.32
48015;BME280;33780;51.034;7.120;2023-03-22T12:25:24;100027.31;;;14.61;51.42
48015;BME280;33780;51.034;7.120;2023-03-22T12:27:57;100027.31;;;14.61;50.69
48015;BME280;33780;51.034;7.120;2023-03-22T12:30:36;100024.31;;;14.56;50.95
48015;BME280;33780;51.034;7.120;2023-03-22T12:35:50;100025.47;;;14.54;50.66
48015;BME280;33780;51.034;7.120;2023-03-22T12:38:28;100027.69;;;14.50;51.00
48015;BME280;33780;51.034;7.120;2023-03-22T12:40:56;100018.09;;;14.47;51.04
48015;BME280;33780;51.034;7.120;2023-03-22T12:43:46;100025.50;;;14.45;51.21
48015;BME280;33780;51.034;7.120;2023-03-22T12:46:17;100016.78;;;14.43;50.92
48015;BME280;33780;51.034;7.120;2023-03-22T12:49:12;100019.78;;;14.40;51.67
48015;BME280;33780;51.034;7.120;2023-03-22T12:51:43;100022.66;;;14.39;51.68
48015;BME280;33780;51.034;7.120;2023-03-22T12:54:12;100018.28;;;14.38;52.07
48015;BME280;33780;51.034;7.120;2023-03-22T12:56:42;100016.59;;;14.37;52.02
48015;BME280;33780;51.034;7.120;2023-03-22T12:59:28;100014.75;;;14.37;52.32
48015;BME280;33780;51.034;7.120;2023-03-22T13:01:58;100020.13;;;14.37;52.22
48015;BME280;33780;51.034;7.120;2023-03-22T13:07:31;100022.97;;;14.36;52.40
48015;BME280;33780;51.034;7.120;2023-03-22T13:09:59;100024.81;;;14.35;52.59
48015;BME280;33780;51.034;7.120;2023-03-22T13:12:27;100023.84;;;14.36;52.81
48015;BME280;33780;51.034;7.120;2023-03-22T13:15:26;100026.53;;;14.36;53.33
48015;BME280;33780;51.034;7.120;2023-03-22T13:17:47;100013.22;;;14.35;53.94
48015;BME280;33780;51.034;7.120;2023-03-22T14:25:46;99976.06;;;14.30;56.58
48015;BME280;33780;51.034;7.120;2023-03-22T14:28:32;99968.16;;;14.29;56.99
48015;BME280;33780;51.034;7.120;2023-03-22T14:30:58;99964.63;;;14.28;57.15
48015;BME280;33780;51.034;7.120;2023-03-22T14:33:23;99967.34;;;14.28;56.98
48015;BME280;33780;51.034;7.120;2023-03-22T14:36:03;99957.59;;;14.27;56.42
48015;BME280;33780;51.034;7.120;2023-03-22T14:38:33;99963.81;;;14.28;56.44
48015;BME280;33780;51.034;7.120;2023-03-22T14:41:20;99968.34;;;14.27;56.38
48015;BME280;33780;51.034;7.120;2023-03-22T14:43:58;99978.28;;;14.27;56.62
48015;BME280;33780;51.034;7.120;2023-03-22T14:46:31;99968.34;;;14.27;56.65
48015;BME280;33780;51.034;7.120;2023-03-22T14:49:01;99968.53;;;14.26;56.46
48015;BME280;33780;51.034;7.120;2023-03-22T14:51:30;99972.06;;;14.26;56.78
48015;BME280;33780;51.034;7.120;2023-03-22T14:53:57;99978.44;;;14.25;56.61
48015;BME280;33780;51.034;7.120;2023-03-22T14:56:37;99972.06;;;14.26;56.67